Huvudsida
METAR-TAF:

METAR-TAF

Flygplatser :

Ålesunds flygplats. Vigra

Ålesund, Norge

latitud: 62-34N, longitud: 006-07E, höjd: 2 m

Aktuellt väderrapport

Denna rapport gjordes för 12 minuter sedan, klockan 03:50 UTC
Vind 10 kt från väst/sydväst
Temperatur 4°C
Fuktighet 87%
Tryck 1008 hPa
Sikt: 5000 m
regn

METAR: ENAL 160350Z AUTO 25010KT 5000 RA BKN013/// OVC019/// 04/02 Q1008

Tid: 05:02 (04:02 UTC)

Väderprognos

Denna rapport gjordes för 2 timmar och 2 minuter sedan, klockan 02:00 UTC
Prognos gäller från 16 kl. 03 UTC till 16 kl. 12 UTC
Vind 12 kt från syd/sydväst
Sikt: 9000 m
Få moln på en höjd av 1000 ft
Brutna moln på en höjd av 2500 ft
lätt regn
Temporärt
från 16 kl. 03 UTC till 16 kl. 09 UTC
Sikt: 3000 m
Brutna moln på en höjd av 400 ft
regn, duggregn, fuktdis
Blir
från 16 kl. 10 UTC till 16 kl. 12 UTC
Vind 10 kt från nordväst

TAF: ENAL 160200Z 1603/1612 21012KT 9000 -RA FEW010 BKN025 TEMPO 1603/1609 3000 RADZ BR BKN004 BECMG 1610/1612 32010KT

Aktuella väderrapporter och prognoser från 4000 flygplatser (METAR- och TAF-rapporter).

De tillgängliga stationerna syns som gula och röda prickar på kartan.

För musen över prickarna för att se namnen på stationerna.

Klicka sedan för att få väderrapporter och prognoser.

För att ändra kartan: Klicka på de gröna knapparna med ett svart kors på för att zooma in; den gröna knappen med ett streck på för att zooma ut; eller på de gröna pilarna för angränsande kartor.


METAR-TAF: